<?xml version="1.0" encoding="UTF-8" standalone="no" ?>
<gpx xmlns="http://www.topografix.com/GPX/1/1" xmlns:xsi="http://www.w3.org/2001/XMLSchema-instance" xsi:schemaLocation="http://www.topografix.com/GPX/1/1 http://www.topografix.com/GPX/1/1/gpx.xsd" version="1.1" creator="VisuGPX - https://www.visugpx.com">
  <metadata>
    <name>Cyclo - Montpezat plateau montagne Ardéchoise</name>
    <desc><![CDATA[Joile rando cyclo sur le plateau de la montagne ardéchoise !
Les paysages sont superbes]]></desc>
  </metadata>
  <trk>
    <name><![CDATA[05-SEP-12 16:30:14]]></name>
    <trkseg>
      <trkpt lat="44.7108" lon="4.20801">
        <ele>512.04</ele>
        <time>2012-09-05T09:34:23Z</time>
      </trkpt>
      <trkpt lat="44.71205" lon="4.20801">
        <ele>562.03</ele>
        <time>2012-09-05T09:36:12Z</time>
      </trkpt>
      <trkpt lat="44.71224" lon="4.20695">
        <ele>570.2</ele>
        <time>2012-09-05T09:37:35Z</time>
      </trkpt>
      <trkpt lat="44.71309" lon="4.20607">
        <ele>575.01</ele>
        <time>2012-09-05T09:38:10Z</time>
      </trkpt>
      <trkpt lat="44.71368" lon="4.20505">
        <ele>582.22</ele>
        <time>2012-09-05T09:38:49Z</time>
      </trkpt>
      <trkpt lat="44.71439" lon="4.20429">
        <ele>589.43</ele>
        <time>2012-09-05T09:39:27Z</time>
      </trkpt>
      <trkpt lat="44.71496" lon="4.20336">
        <ele>597.12</ele>
        <time>2012-09-05T09:40:08Z</time>
      </trkpt>
      <trkpt lat="44.71588" lon="4.20323">
        <ele>604.81</ele>
        <time>2012-09-05T09:40:51Z</time>
      </trkpt>
      <trkpt lat="44.71632" lon="4.20244">
        <ele>611.54</ele>
        <time>2012-09-05T09:41:30Z</time>
      </trkpt>
      <trkpt lat="44.71578" lon="4.20152">
        <ele>618.26</ele>
        <time>2012-09-05T09:42:11Z</time>
      </trkpt>
      <trkpt lat="44.71492" lon="4.20191">
        <ele>624.51</ele>
        <time>2012-09-05T09:42:47Z</time>
      </trkpt>
      <trkpt lat="44.71424" lon="4.20268">
        <ele>630.28</ele>
        <time>2012-09-05T09:43:20Z</time>
      </trkpt>
      <trkpt lat="44.71343" lon="4.20256">
        <ele>636.05</ele>
        <time>2012-09-05T09:43:56Z</time>
      </trkpt>
      <trkpt lat="44.71281" lon="4.20359">
        <ele>640.86</ele>
        <time>2012-09-05T09:44:30Z</time>
      </trkpt>
      <trkpt lat="44.71217" lon="4.20339">
        <ele>646.14</ele>
        <time>2012-09-05T09:45:03Z</time>
      </trkpt>
      <trkpt lat="44.71138" lon="4.20267">
        <ele>651.43</ele>
        <time>2012-09-05T09:45:36Z</time>
      </trkpt>
      <trkpt lat="44.71104" lon="4.20359">
        <ele>651.43</ele>
        <time>2012-09-05T09:46:20Z</time>
      </trkpt>
      <trkpt lat="44.71034" lon="4.20452">
        <ele>644.22</ele>
        <time>2012-09-05T09:46:35Z</time>
      </trkpt>
      <trkpt lat="44.70961" lon="4.20485">
        <ele>636.53</ele>
        <time>2012-09-05T09:46:48Z</time>
      </trkpt>
      <trkpt lat="44.70875" lon="4.20508">
        <ele>630.28</ele>
        <time>2012-09-05T09:47:01Z</time>
      </trkpt>
      <trkpt lat="44.70858" lon="4.20424">
        <ele>628.36</ele>
        <time>2012-09-05T09:47:23Z</time>
      </trkpt>
      <trkpt lat="44.70856" lon="4.20299">
        <ele>628.84</ele>
        <time>2012-09-05T09:47:45Z</time>
      </trkpt>
      <trkpt lat="44.70788" lon="4.20234">
        <ele>629.32</ele>
        <time>2012-09-05T09:48:07Z</time>
      </trkpt>
      <trkpt lat="44.70768" lon="4.20107">
        <ele>628.84</ele>
        <time>2012-09-05T09:48:27Z</time>
      </trkpt>
      <trkpt lat="44.70729" lon="4.19999">
        <ele>626.92</ele>
        <time>2012-09-05T09:48:44Z</time>
      </trkpt>
      <trkpt lat="44.70687" lon="4.19899">
        <ele>622.59</ele>
        <time>2012-09-05T09:48:59Z</time>
      </trkpt>
      <trkpt lat="44.70603" lon="4.19843">
        <ele>619.71</ele>
        <time>2012-09-05T09:49:14Z</time>
      </trkpt>
      <trkpt lat="44.70606" lon="4.19709">
        <ele>616.34</ele>
        <time>2012-09-05T09:49:30Z</time>
      </trkpt>
      <trkpt lat="44.70628" lon="4.19584">
        <ele>610.57</ele>
        <time>2012-09-05T09:49:44Z</time>
      </trkpt>
      <trkpt lat="44.70663" lon="4.19466">
        <ele>603.36</ele>
        <time>2012-09-05T09:50:02Z</time>
      </trkpt>
      <trkpt lat="44.70669" lon="4.19336">
        <ele>597.12</ele>
        <time>2012-09-05T09:50:15Z</time>
      </trkpt>
      <trkpt lat="44.70681" lon="4.19205">
        <ele>592.79</ele>
        <time>2012-09-05T09:50:32Z</time>
      </trkpt>
      <trkpt lat="44.70664" lon="4.19082">
        <ele>589.91</ele>
        <time>2012-09-05T09:50:50Z</time>
      </trkpt>
      <trkpt lat="44.70603" lon="4.19028">
        <ele>587.5</ele>
        <time>2012-09-05T09:51:06Z</time>
      </trkpt>
      <trkpt lat="44.70577" lon="4.18909">
        <ele>584.62</ele>
        <time>2012-09-05T09:51:24Z</time>
      </trkpt>
      <trkpt lat="44.70598" lon="4.18783">
        <ele>586.54</ele>
        <time>2012-09-05T09:51:45Z</time>
      </trkpt>
      <trkpt lat="44.70572" lon="4.18699">
        <ele>584.14</ele>
        <time>2012-09-05T09:52:04Z</time>
      </trkpt>
      <trkpt lat="44.70565" lon="4.18567">
        <ele>578.85</ele>
        <time>2012-09-05T09:52:18Z</time>
      </trkpt>
      <trkpt lat="44.70575" lon="4.18438">
        <ele>581.25</ele>
        <time>2012-09-05T09:52:39Z</time>
      </trkpt>
      <trkpt lat="44.7058" lon="4.18309">
        <ele>585.1</ele>
        <time>2012-09-05T09:53:06Z</time>
      </trkpt>
      <trkpt lat="44.70585" lon="4.18176">
        <ele>587.02</ele>
        <time>2012-09-05T09:53:32Z</time>
      </trkpt>
      <trkpt lat="44.706" lon="4.18048">
        <ele>589.91</ele>
        <time>2012-09-05T09:53:57Z</time>
      </trkpt>
      <trkpt lat="44.70592" lon="4.17915">
        <ele>593.75</ele>
        <time>2012-09-05T09:54:24Z</time>
      </trkpt>
      <trkpt lat="44.70623" lon="4.17802">
        <ele>597.12</ele>
        <time>2012-09-05T09:54:51Z</time>
      </trkpt>
      <trkpt lat="44.70651" lon="4.17684">
        <ele>601.92</ele>
        <time>2012-09-05T09:55:18Z</time>
      </trkpt>
      <trkpt lat="44.707" lon="4.17575">
        <ele>606.73</ele>
        <time>2012-09-05T09:55:47Z</time>
      </trkpt>
      <trkpt lat="44.70719" lon="4.17446">
        <ele>607.69</ele>
        <time>2012-09-05T09:56:11Z</time>
      </trkpt>
      <trkpt lat="44.70712" lon="4.17308">
        <ele>609.13</ele>
        <time>2012-09-05T09:56:35Z</time>
      </trkpt>
      <trkpt lat="44.70722" lon="4.17179">
        <ele>610.09</ele>
        <time>2012-09-05T09:56:58Z</time>
      </trkpt>
      <trkpt lat="44.70724" lon="4.17092">
        <ele>612.98</ele>
        <time>2012-09-05T09:58:50Z</time>
      </trkpt>
      <trkpt lat="44.70688" lon="4.16979">
        <ele>614.42</ele>
        <time>2012-09-05T09:59:22Z</time>
      </trkpt>
      <trkpt lat="44.7075" lon="4.16887">
        <ele>615.86</ele>
        <time>2012-09-05T09:59:49Z</time>
      </trkpt>
      <trkpt lat="44.70825" lon="4.16818">
        <ele>617.78</ele>
        <time>2012-09-05T10:00:10Z</time>
      </trkpt>
      <trkpt lat="44.70885" lon="4.16728">
        <ele>622.59</ele>
        <time>2012-09-05T10:00:35Z</time>
      </trkpt>
      <trkpt lat="44.70871" lon="4.16594">
        <ele>631.24</ele>
        <time>2012-09-05T10:01:08Z</time>
      </trkpt>
      <trkpt lat="44.70888" lon="4.16469">
        <ele>638.45</ele>
        <time>2012-09-05T10:01:47Z</time>
      </trkpt>
      <trkpt lat="44.70919" lon="4.16343">
        <ele>640.86</ele>
        <time>2012-09-05T10:02:18Z</time>
      </trkpt>
      <trkpt lat="44.70977" lon="4.16244">
        <ele>644.7</ele>
        <time>2012-09-05T10:02:48Z</time>
      </trkpt>
      <trkpt lat="44.71046" lon="4.16154">
        <ele>652.39</ele>
        <time>2012-09-05T10:03:24Z</time>
      </trkpt>
      <trkpt lat="44.71097" lon="4.16037">
        <ele>661.04</ele>
        <time>2012-09-05T10:04:03Z</time>
      </trkpt>
      <trkpt lat="44.71155" lon="4.15927">
        <ele>670.18</ele>
        <time>2012-09-05T10:04:47Z</time>
      </trkpt>
      <trkpt lat="44.71203" lon="4.15811">
        <ele>676.42</ele>
        <time>2012-09-05T10:05:26Z</time>
      </trkpt>
      <trkpt lat="44.71268" lon="4.15721">
        <ele>681.23</ele>
        <time>2012-09-05T10:06:00Z</time>
      </trkpt>
      <trkpt lat="44.71293" lon="4.15594">
        <ele>689.88</ele>
        <time>2012-09-05T10:06:36Z</time>
      </trkpt>
      <trkpt lat="44.71312" lon="4.15465">
        <ele>699.02</ele>
        <time>2012-09-05T10:07:18Z</time>
      </trkpt>
      <trkpt lat="44.71288" lon="4.15339">
        <ele>706.71</ele>
        <time>2012-09-05T10:07:58Z</time>
      </trkpt>
      <trkpt lat="44.71304" lon="4.15222">
        <ele>715.36</ele>
        <time>2012-09-05T10:08:40Z</time>
      </trkpt>
      <trkpt lat="44.71395" lon="4.15206">
        <ele>723.53</ele>
        <time>2012-09-05T10:09:23Z</time>
      </trkpt>
      <trkpt lat="44.71463" lon="4.15123">
        <ele>729.78</ele>
        <time>2012-09-05T10:10:03Z</time>
      </trkpt>
      <trkpt lat="44.71496" lon="4.1505">
        <ele>737.47</ele>
        <time>2012-09-05T10:10:41Z</time>
      </trkpt>
      <trkpt lat="44.71455" lon="4.1494">
        <ele>742.76</ele>
        <time>2012-09-05T10:11:21Z</time>
      </trkpt>
      <trkpt lat="44.7139" lon="4.1484">
        <ele>750.45</ele>
        <time>2012-09-05T10:12:06Z</time>
      </trkpt>
      <trkpt lat="44.71312" lon="4.14785">
        <ele>758.14</ele>
        <time>2012-09-05T10:12:47Z</time>
      </trkpt>
      <trkpt lat="44.71302" lon="4.1472">
        <ele>763.9</ele>
        <time>2012-09-05T10:13:28Z</time>
      </trkpt>
      <trkpt lat="44.71348" lon="4.1462">
        <ele>764.87</ele>
        <time>2012-09-05T10:13:59Z</time>
      </trkpt>
      <trkpt lat="44.71358" lon="4.14504">
        <ele>763.9</ele>
        <time>2012-09-05T10:14:25Z</time>
      </trkpt>
      <trkpt lat="44.71366" lon="4.14388">
        <ele>767.27</ele>
        <time>2012-09-05T10:14:49Z</time>
      </trkpt>
      <trkpt lat="44.71348" lon="4.14278">
        <ele>768.71</ele>
        <time>2012-09-05T10:15:14Z</time>
      </trkpt>
      <trkpt lat="44.71436" lon="4.14291">
        <ele>768.23</ele>
        <time>2012-09-05T10:15:36Z</time>
      </trkpt>
      <trkpt lat="44.71524" lon="4.14314">
        <ele>766.31</ele>
        <time>2012-09-05T10:16:00Z</time>
      </trkpt>
      <trkpt lat="44.71622" lon="4.14293">
        <ele>763.9</ele>
        <time>2012-09-05T10:16:18Z</time>
      </trkpt>
      <trkpt lat="44.71714" lon="4.14294">
        <ele>758.14</ele>
        <time>2012-09-05T10:16:35Z</time>
      </trkpt>
      <trkpt lat="44.71682" lon="4.14177">
        <ele>758.14</ele>
        <time>2012-09-05T10:19:08Z</time>
      </trkpt>
      <trkpt lat="44.71592" lon="4.14157">
        <ele>758.62</ele>
        <time>2012-09-05T10:19:32Z</time>
      </trkpt>
      <trkpt lat="44.71566" lon="4.14058">
        <ele>764.87</ele>
        <time>2012-09-05T10:20:03Z</time>
      </trkpt>
      <trkpt lat="44.71574" lon="4.13966">
        <ele>776.88</ele>
        <time>2012-09-05T10:20:51Z</time>
      </trkpt>
      <trkpt lat="44.71613" lon="4.14085">
        <ele>784.09</ele>
        <time>2012-09-05T10:21:36Z</time>
      </trkpt>
      <trkpt lat="44.71693" lon="4.14033">
        <ele>789.86</ele>
        <time>2012-09-05T10:22:18Z</time>
      </trkpt>
      <trkpt lat="44.71717" lon="4.14124">
        <ele>796.11</ele>
        <time>2012-09-05T10:22:58Z</time>
      </trkpt>
      <trkpt lat="44.71785" lon="4.14201">
        <ele>803.32</ele>
        <time>2012-09-05T10:23:39Z</time>
      </trkpt>
      <trkpt lat="44.71851" lon="4.14186">
        <ele>811.01</ele>
        <time>2012-09-05T10:24:21Z</time>
      </trkpt>
      <trkpt lat="44.71909" lon="4.14274">
        <ele>818.22</ele>
        <time>2012-09-05T10:25:01Z</time>
      </trkpt>
      <trkpt lat="44.71974" lon="4.14346">
        <ele>825.91</ele>
        <time>2012-09-05T10:25:36Z</time>
      </trkpt>
      <trkpt lat="44.72063" lon="4.14351">
        <ele>834.08</ele>
        <time>2012-09-05T10:26:17Z</time>
      </trkpt>
      <trkpt lat="44.72139" lon="4.14323">
        <ele>841.29</ele>
        <time>2012-09-05T10:27:01Z</time>
      </trkpt>
      <trkpt lat="44.72221" lon="4.14364">
        <ele>847.54</ele>
        <time>2012-09-05T10:27:42Z</time>
      </trkpt>
      <trkpt lat="44.72266" lon="4.14429">
        <ele>854.27</ele>
        <time>2012-09-05T10:28:36Z</time>
      </trkpt>
      <trkpt lat="44.72295" lon="4.14528">
        <ele>861.48</ele>
        <time>2012-09-05T10:29:18Z</time>
      </trkpt>
      <trkpt lat="44.72355" lon="4.14615">
        <ele>864.36</ele>
        <time>2012-09-05T10:29:58Z</time>
      </trkpt>
      <trkpt lat="44.72361" lon="4.1474">
        <ele>865.8</ele>
        <time>2012-09-05T10:30:26Z</time>
      </trkpt>
      <trkpt lat="44.72365" lon="4.14869">
        <ele>856.67</ele>
        <time>2012-09-05T10:30:41Z</time>
      </trkpt>
      <trkpt lat="44.72311" lon="4.14887">
        <ele>849.94</ele>
        <time>2012-09-05T10:30:57Z</time>
      </trkpt>
      <trkpt lat="44.72338" lon="4.15">
        <ele>844.18</ele>
        <time>2012-09-05T10:31:11Z</time>
      </trkpt>
      <trkpt lat="44.72265" lon="4.15019">
        <ele>848.5</ele>
        <time>2012-09-05T10:31:34Z</time>
      </trkpt>
      <trkpt lat="44.72183" lon="4.14965">
        <ele>854.75</ele>
        <time>2012-09-05T10:32:12Z</time>
      </trkpt>
      <trkpt lat="44.72136" lon="4.14853">
        <ele>858.11</ele>
        <time>2012-09-05T10:32:49Z</time>
      </trkpt>
      <trkpt lat="44.7205" lon="4.14869">
        <ele>864.84</ele>
        <time>2012-09-05T10:33:24Z</time>
      </trkpt>
      <trkpt lat="44.71966" lon="4.14841">
        <ele>870.61</ele>
        <time>2012-09-05T10:34:00Z</time>
      </trkpt>
      <trkpt lat="44.71878" lon="4.14851">
        <ele>878.78</ele>
        <time>2012-09-05T10:34:36Z</time>
      </trkpt>
      <trkpt lat="44.71798" lon="4.14787">
        <ele>886.47</ele>
        <time>2012-09-05T10:35:14Z</time>
      </trkpt>
      <trkpt lat="44.71763" lon="4.1481">
        <ele>893.68</ele>
        <time>2012-09-05T10:35:51Z</time>
      </trkpt>
      <trkpt lat="44.71814" lon="4.14899">
        <ele>902.33</ele>
        <time>2012-09-05T10:36:31Z</time>
      </trkpt>
      <trkpt lat="44.71849" lon="4.15014">
        <ele>911.47</ele>
        <time>2012-09-05T10:37:11Z</time>
      </trkpt>
      <trkpt lat="44.7188" lon="4.15131">
        <ele>918.2</ele>
        <time>2012-09-05T10:37:51Z</time>
      </trkpt>
      <trkpt lat="44.71887" lon="4.15258">
        <ele>926.37</ele>
        <time>2012-09-05T10:38:30Z</time>
      </trkpt>
      <trkpt lat="44.71839" lon="4.15352">
        <ele>934.54</ele>
        <time>2012-09-05T10:39:09Z</time>
      </trkpt>
      <trkpt lat="44.71822" lon="4.15471">
        <ele>941.75</ele>
        <time>2012-09-05T10:39:45Z</time>
      </trkpt>
      <trkpt lat="44.71779" lon="4.15564">
        <ele>951.36</ele>
        <time>2012-09-05T10:40:25Z</time>
      </trkpt>
      <trkpt lat="44.71762" lon="4.156">
        <ele>959.53</ele>
        <time>2012-09-05T10:43:08Z</time>
      </trkpt>
      <trkpt lat="44.7185" lon="4.15563">
        <ele>965.78</ele>
        <time>2012-09-05T10:43:50Z</time>
      </trkpt>
      <trkpt lat="44.71881" lon="4.15439">
        <ele>970.11</ele>
        <time>2012-09-05T10:44:29Z</time>
      </trkpt>
      <trkpt lat="44.71953" lon="4.1536">
        <ele>975.88</ele>
        <time>2012-09-05T10:45:11Z</time>
      </trkpt>
      <trkpt lat="44.71976" lon="4.15237">
        <ele>983.09</ele>
        <time>2012-09-05T10:45:50Z</time>
      </trkpt>
      <trkpt lat="44.72037" lon="4.15219">
        <ele>988.85</ele>
        <time>2012-09-05T10:46:30Z</time>
      </trkpt>
      <trkpt lat="44.72086" lon="4.15334">
        <ele>995.1</ele>
        <time>2012-09-05T10:47:13Z</time>
      </trkpt>
      <trkpt lat="44.7211" lon="4.15455">
        <ele>1001.35</ele>
        <time>2012-09-05T10:47:54Z</time>
      </trkpt>
      <trkpt lat="44.72136" lon="4.15582">
        <ele>1007.12</ele>
        <time>2012-09-05T10:48:34Z</time>
      </trkpt>
      <trkpt lat="44.72183" lon="4.15692">
        <ele>1013.85</ele>
        <time>2012-09-05T10:49:13Z</time>
      </trkpt>
      <trkpt lat="44.72259" lon="4.15749">
        <ele>1019.62</ele>
        <time>2012-09-05T10:49:52Z</time>
      </trkpt>
      <trkpt lat="44.72349" lon="4.15745">
        <ele>1025.38</ele>
        <time>2012-09-05T10:50:32Z</time>
      </trkpt>
      <trkpt lat="44.72434" lon="4.15797">
        <ele>1031.63</ele>
        <time>2012-09-05T10:51:14Z</time>
      </trkpt>
      <trkpt lat="44.72458" lon="4.15931">
        <ele>1038.36</ele>
        <time>2012-09-05T10:51:57Z</time>
      </trkpt>
      <trkpt lat="44.72514" lon="4.15988">
        <ele>1044.13</ele>
        <time>2012-09-05T10:52:36Z</time>
      </trkpt>
      <trkpt lat="44.72602" lon="4.15963">
        <ele>1050.38</ele>
        <time>2012-09-05T10:53:16Z</time>
      </trkpt>
      <trkpt lat="44.72684" lon="4.1593">
        <ele>1056.63</ele>
        <time>2012-09-05T10:53:55Z</time>
      </trkpt>
      <trkpt lat="44.72713" lon="4.15807">
        <ele>1061.43</ele>
        <time>2012-09-05T10:54:33Z</time>
      </trkpt>
      <trkpt lat="44.72774" lon="4.15704">
        <ele>1068.16</ele>
        <time>2012-09-05T10:55:13Z</time>
      </trkpt>
      <trkpt lat="44.7285" lon="4.1563">
        <ele>1074.41</ele>
        <time>2012-09-05T10:55:52Z</time>
      </trkpt>
      <trkpt lat="44.72915" lon="4.1572">
        <ele>1081.14</ele>
        <time>2012-09-05T10:56:30Z</time>
      </trkpt>
      <trkpt lat="44.72968" lon="4.15811">
        <ele>1087.39</ele>
        <time>2012-09-05T10:57:09Z</time>
      </trkpt>
      <trkpt lat="44.72964" lon="4.15951">
        <ele>1093.64</ele>
        <time>2012-09-05T10:57:54Z</time>
      </trkpt>
      <trkpt lat="44.73059" lon="4.15927">
        <ele>1099.4</ele>
        <time>2012-09-05T10:58:35Z</time>
      </trkpt>
      <trkpt lat="44.73147" lon="4.15944">
        <ele>1104.69</ele>
        <time>2012-09-05T10:59:18Z</time>
      </trkpt>
      <trkpt lat="44.73199" lon="4.16057">
        <ele>1110.46</ele>
        <time>2012-09-05T11:00:00Z</time>
      </trkpt>
      <trkpt lat="44.73214" lon="4.16192">
        <ele>1117.19</ele>
        <time>2012-09-05T11:00:42Z</time>
      </trkpt>
      <trkpt lat="44.73209" lon="4.16335">
        <ele>1122.96</ele>
        <time>2012-09-05T11:01:25Z</time>
      </trkpt>
      <trkpt lat="44.73206" lon="4.16466">
        <ele>1130.17</ele>
        <time>2012-09-05T11:02:04Z</time>
      </trkpt>
      <trkpt lat="44.73249" lon="4.16578">
        <ele>1136.42</ele>
        <time>2012-09-05T11:02:45Z</time>
      </trkpt>
      <trkpt lat="44.73311" lon="4.16478">
        <ele>1139.78</ele>
        <time>2012-09-05T11:03:21Z</time>
      </trkpt>
      <trkpt lat="44.73392" lon="4.16402">
        <ele>1146.03</ele>
        <time>2012-09-05T11:04:03Z</time>
      </trkpt>
      <trkpt lat="44.73478" lon="4.16457">
        <ele>1152.28</ele>
        <time>2012-09-05T11:04:44Z</time>
      </trkpt>
      <trkpt lat="44.73554" lon="4.16529">
        <ele>1158.05</ele>
        <time>2012-09-05T11:05:24Z</time>
      </trkpt>
      <trkpt lat="44.73597" lon="4.16627">
        <ele>1164.77</ele>
        <time>2012-09-05T11:06:02Z</time>
      </trkpt>
      <trkpt lat="44.7367" lon="4.16623">
        <ele>1168.14</ele>
        <time>2012-09-05T11:06:40Z</time>
      </trkpt>
      <trkpt lat="44.73723" lon="4.16729">
        <ele>1172.95</ele>
        <time>2012-09-05T11:07:22Z</time>
      </trkpt>
      <trkpt lat="44.73801" lon="4.16791">
        <ele>1180.16</ele>
        <time>2012-09-05T11:08:02Z</time>
      </trkpt>
      <trkpt lat="44.73888" lon="4.16827">
        <ele>1186.4</ele>
        <time>2012-09-05T11:08:42Z</time>
      </trkpt>
      <trkpt lat="44.73959" lon="4.16857">
        <ele>1189.77</ele>
        <time>2012-09-05T11:11:08Z</time>
      </trkpt>
      <trkpt lat="44.73921" lon="4.1674">
        <ele>1192.65</ele>
        <time>2012-09-05T11:11:54Z</time>
      </trkpt>
      <trkpt lat="44.73877" lon="4.16628">
        <ele>1196.5</ele>
        <time>2012-09-05T11:12:35Z</time>
      </trkpt>
      <trkpt lat="44.73853" lon="4.1651">
        <ele>1202.75</ele>
        <time>2012-09-05T11:13:15Z</time>
      </trkpt>
      <trkpt lat="44.73893" lon="4.16411">
        <ele>1207.55</ele>
        <time>2012-09-05T11:13:53Z</time>
      </trkpt>
      <trkpt lat="44.73961" lon="4.16316">
        <ele>1213.8</ele>
        <time>2012-09-05T11:14:28Z</time>
      </trkpt>
      <trkpt lat="44.73997" lon="4.16196">
        <ele>1215.72</ele>
        <time>2012-09-05T11:14:59Z</time>
      </trkpt>
      <trkpt lat="44.74047" lon="4.16122">
        <ele>1220.05</ele>
        <time>2012-09-05T11:15:28Z</time>
      </trkpt>
      <trkpt lat="44.73957" lon="4.16117">
        <ele>1223.42</ele>
        <time>2012-09-05T11:15:55Z</time>
      </trkpt>
      <trkpt lat="44.73866" lon="4.16136">
        <ele>1226.78</ele>
        <time>2012-09-05T11:16:22Z</time>
      </trkpt>
      <trkpt lat="44.73795" lon="4.16053">
        <ele>1230.62</ele>
        <time>2012-09-05T11:16:51Z</time>
      </trkpt>
      <trkpt lat="44.73738" lon="4.15952">
        <ele>1233.03</ele>
        <time>2012-09-05T11:17:20Z</time>
      </trkpt>
      <trkpt lat="44.73661" lon="4.1588">
        <ele>1235.43</ele>
        <time>2012-09-05T11:17:46Z</time>
      </trkpt>
      <trkpt lat="44.73616" lon="4.15767">
        <ele>1238.32</ele>
        <time>2012-09-05T11:18:11Z</time>
      </trkpt>
      <trkpt lat="44.73602" lon="4.15642">
        <ele>1241.2</ele>
        <time>2012-09-05T11:18:35Z</time>
      </trkpt>
      <trkpt lat="44.73583" lon="4.15519">
        <ele>1242.16</ele>
        <time>2012-09-05T11:18:58Z</time>
      </trkpt>
      <trkpt lat="44.73625" lon="4.15405">
        <ele>1245.53</ele>
        <time>2012-09-05T11:19:23Z</time>
      </trkpt>
      <trkpt lat="44.73677" lon="4.15303">
        <ele>1247.45</ele>
        <time>2012-09-05T11:19:50Z</time>
      </trkpt>
      <trkpt lat="44.73721" lon="4.15188">
        <ele>1249.37</ele>
        <time>2012-09-05T11:20:19Z</time>
      </trkpt>
      <trkpt lat="44.73799" lon="4.15131">
        <ele>1251.29</ele>
        <time>2012-09-05T11:20:48Z</time>
      </trkpt>
      <trkpt lat="44.73785" lon="4.15017">
        <ele>1254.18</ele>
        <time>2012-09-05T11:21:11Z</time>
      </trkpt>
      <trkpt lat="44.7376" lon="4.14893">
        <ele>1255.62</ele>
        <time>2012-09-05T11:21:34Z</time>
      </trkpt>
      <trkpt lat="44.73788" lon="4.14763">
        <ele>1255.14</ele>
        <time>2012-09-05T11:21:57Z</time>
      </trkpt>
      <trkpt lat="44.73824" lon="4.14637">
        <ele>1255.62</ele>
        <time>2012-09-05T11:22:16Z</time>
      </trkpt>
      <trkpt lat="44.7386" lon="4.14513">
        <ele>1254.18</ele>
        <time>2012-09-05T11:22:34Z</time>
      </trkpt>
      <trkpt lat="44.73906" lon="4.14405">
        <ele>1251.77</ele>
        <time>2012-09-05T11:22:50Z</time>
      </trkpt>
      <trkpt lat="44.74007" lon="4.14346">
        <ele>1248.89</ele>
        <time>2012-09-05T11:23:05Z</time>
      </trkpt>
      <trkpt lat="44.74089" lon="4.14279">
        <ele>1248.41</ele>
        <time>2012-09-05T11:30:40Z</time>
      </trkpt>
      <trkpt lat="44.74093" lon="4.14157">
        <ele>1246.49</ele>
        <time>2012-09-05T11:31:03Z</time>
      </trkpt>
      <trkpt lat="44.74153" lon="4.14057">
        <ele>1248.89</ele>
        <time>2012-09-05T11:31:30Z</time>
      </trkpt>
      <trkpt lat="44.74236" lon="4.13954">
        <ele>1251.29</ele>
        <time>2012-09-05T11:32:00Z</time>
      </trkpt>
      <trkpt lat="44.74328" lon="4.13891">
        <ele>1252.74</ele>
        <time>2012-09-05T11:32:24Z</time>
      </trkpt>
      <trkpt lat="44.74423" lon="4.13873">
        <ele>1254.66</ele>
        <time>2012-09-05T11:32:49Z</time>
      </trkpt>
      <trkpt lat="44.74531" lon="4.13841">
        <ele>1257.06</ele>
        <time>2012-09-05T11:33:16Z</time>
      </trkpt>
      <trkpt lat="44.74619" lon="4.1376">
        <ele>1258.02</ele>
        <time>2012-09-05T11:33:38Z</time>
      </trkpt>
      <trkpt lat="44.74706" lon="4.1373">
        <ele>1253.7</ele>
        <time>2012-09-05T11:33:56Z</time>
      </trkpt>
      <trkpt lat="44.74798" lon="4.13761">
        <ele>1247.45</ele>
        <time>2012-09-05T11:34:09Z</time>
      </trkpt>
      <trkpt lat="44.74893" lon="4.1379">
        <ele>1243.6</ele>
        <time>2012-09-05T11:34:22Z</time>
      </trkpt>
      <trkpt lat="44.74969" lon="4.13721">
        <ele>1243.6</ele>
        <time>2012-09-05T11:34:37Z</time>
      </trkpt>
      <trkpt lat="44.75061" lon="4.13684">
        <ele>1244.08</ele>
        <time>2012-09-05T11:34:56Z</time>
      </trkpt>
      <trkpt lat="44.75147" lon="4.13629">
        <ele>1244.56</ele>
        <time>2012-09-05T11:35:15Z</time>
      </trkpt>
      <trkpt lat="44.75218" lon="4.13548">
        <ele>1244.56</ele>
        <time>2012-09-05T11:35:34Z</time>
      </trkpt>
      <trkpt lat="44.75303" lon="4.13505">
        <ele>1245.53</ele>
        <time>2012-09-05T11:35:54Z</time>
      </trkpt>
      <trkpt lat="44.75385" lon="4.13561">
        <ele>1245.53</ele>
        <time>2012-09-05T11:36:13Z</time>
      </trkpt>
      <trkpt lat="44.7546" lon="4.13626">
        <ele>1244.56</ele>
        <time>2012-09-05T11:36:32Z</time>
      </trkpt>
      <trkpt lat="44.75513" lon="4.13706">
        <ele>1242.16</ele>
        <time>2012-09-05T11:36:46Z</time>
      </trkpt>
      <trkpt lat="44.75592" lon="4.13626">
        <ele>1237.83</ele>
        <time>2012-09-05T11:36:59Z</time>
      </trkpt>
      <trkpt lat="44.75677" lon="4.1364">
        <ele>1233.03</ele>
        <time>2012-09-05T11:37:11Z</time>
      </trkpt>
      <trkpt lat="44.75739" lon="4.13743">
        <ele>1228.7</ele>
        <time>2012-09-05T11:37:23Z</time>
      </trkpt>
      <trkpt lat="44.75737" lon="4.13878">
        <ele>1223.9</ele>
        <time>2012-09-05T11:37:35Z</time>
      </trkpt>
      <trkpt lat="44.75774" lon="4.13996">
        <ele>1219.09</ele>
        <time>2012-09-05T11:37:48Z</time>
      </trkpt>
      <trkpt lat="44.75864" lon="4.14009">
        <ele>1214.76</ele>
        <time>2012-09-05T11:38:01Z</time>
      </trkpt>
      <trkpt lat="44.7592" lon="4.14125">
        <ele>1210.44</ele>
        <time>2012-09-05T11:38:14Z</time>
      </trkpt>
      <trkpt lat="44.75917" lon="4.14255">
        <ele>1206.59</ele>
        <time>2012-09-05T11:38:25Z</time>
      </trkpt>
      <trkpt lat="44.75915" lon="4.14385">
        <ele>1202.27</ele>
        <time>2012-09-05T11:38:36Z</time>
      </trkpt>
      <trkpt lat="44.75849" lon="4.14469">
        <ele>1198.42</ele>
        <time>2012-09-05T11:38:47Z</time>
      </trkpt>
      <trkpt lat="44.75797" lon="4.14565">
        <ele>1196.5</ele>
        <time>2012-09-05T11:38:59Z</time>
      </trkpt>
      <trkpt lat="44.7587" lon="4.14664">
        <ele>1190.25</ele>
        <time>2012-09-05T11:39:11Z</time>
      </trkpt>
      <trkpt lat="44.75928" lon="4.14761">
        <ele>1186.88</ele>
        <time>2012-09-05T11:39:22Z</time>
      </trkpt>
      <trkpt lat="44.76022" lon="4.14806">
        <ele>1182.08</ele>
        <time>2012-09-05T11:39:34Z</time>
      </trkpt>
      <trkpt lat="44.76098" lon="4.14887">
        <ele>1178.23</ele>
        <time>2012-09-05T11:39:45Z</time>
      </trkpt>
      <trkpt lat="44.76097" lon="4.15019">
        <ele>1173.43</ele>
        <time>2012-09-05T11:39:56Z</time>
      </trkpt>
      <trkpt lat="44.76115" lon="4.1513">
        <ele>1168.62</ele>
        <time>2012-09-05T11:40:08Z</time>
      </trkpt>
      <trkpt lat="44.76172" lon="4.15228">
        <ele>1165.26</ele>
        <time>2012-09-05T11:40:19Z</time>
      </trkpt>
      <trkpt lat="44.76204" lon="4.15353">
        <ele>1160.93</ele>
        <time>2012-09-05T11:40:30Z</time>
      </trkpt>
      <trkpt lat="44.76157" lon="4.1546">
        <ele>1158.05</ele>
        <time>2012-09-05T11:40:41Z</time>
      </trkpt>
      <trkpt lat="44.76079" lon="4.15541">
        <ele>1155.16</ele>
        <time>2012-09-05T11:40:53Z</time>
      </trkpt>
      <trkpt lat="44.75998" lon="4.15606">
        <ele>1152.28</ele>
        <time>2012-09-05T11:41:05Z</time>
      </trkpt>
      <trkpt lat="44.75909" lon="4.15643">
        <ele>1151.32</ele>
        <time>2012-09-05T11:41:19Z</time>
      </trkpt>
      <trkpt lat="44.75953" lon="4.15749">
        <ele>1147.47</ele>
        <time>2012-09-05T11:41:35Z</time>
      </trkpt>
      <trkpt lat="44.76003" lon="4.15862">
        <ele>1142.66</ele>
        <time>2012-09-05T11:41:47Z</time>
      </trkpt>
      <trkpt lat="44.76018" lon="4.15989">
        <ele>1138.34</ele>
        <time>2012-09-05T11:41:59Z</time>
      </trkpt>
      <trkpt lat="44.76092" lon="4.1606">
        <ele>1132.57</ele>
        <time>2012-09-05T11:42:11Z</time>
      </trkpt>
      <trkpt lat="44.76153" lon="4.16149">
        <ele>1129.21</ele>
        <time>2012-09-05T11:42:24Z</time>
      </trkpt>
      <trkpt lat="44.76218" lon="4.16237">
        <ele>1127.28</ele>
        <time>2012-09-05T11:42:37Z</time>
      </trkpt>
      <trkpt lat="44.7627" lon="4.16264">
        <ele>1127.76</ele>
        <time>2012-09-05T11:43:26Z</time>
      </trkpt>
      <trkpt lat="44.76272" lon="4.16264">
        <ele>1126.8</ele>
        <time>2012-09-05T12:04:42Z</time>
      </trkpt>
      <trkpt lat="44.7636" lon="4.1623">
        <ele>1132.09</ele>
        <time>2012-09-05T12:05:38Z</time>
      </trkpt>
      <trkpt lat="44.7645" lon="4.16232">
        <ele>1132.57</ele>
        <time>2012-09-05T12:06:02Z</time>
      </trkpt>
      <trkpt lat="44.76537" lon="4.16269">
        <ele>1132.57</ele>
        <time>2012-09-05T12:06:22Z</time>
      </trkpt>
      <trkpt lat="44.76618" lon="4.1633">
        <ele>1134.01</ele>
        <time>2012-09-05T12:06:42Z</time>
      </trkpt>
      <trkpt lat="44.76683" lon="4.16423">
        <ele>1134.01</ele>
        <time>2012-09-05T12:07:02Z</time>
      </trkpt>
      <trkpt lat="44.76752" lon="4.16509">
        <ele>1134.01</ele>
        <time>2012-09-05T12:07:21Z</time>
      </trkpt>
      <trkpt lat="44.76821" lon="4.1659">
        <ele>1135.45</ele>
        <time>2012-09-05T12:07:38Z</time>
      </trkpt>
      <trkpt lat="44.76868" lon="4.16697">
        <ele>1137.38</ele>
        <time>2012-09-05T12:07:55Z</time>
      </trkpt>
      <trkpt lat="44.76888" lon="4.16822">
        <ele>1137.86</ele>
        <time>2012-09-05T12:08:14Z</time>
      </trkpt>
      <trkpt lat="44.7697" lon="4.16875">
        <ele>1140.26</ele>
        <time>2012-09-05T12:08:32Z</time>
      </trkpt>
      <trkpt lat="44.77002" lon="4.16762">
        <ele>1144.11</ele>
        <time>2012-09-05T12:08:55Z</time>
      </trkpt>
      <trkpt lat="44.77069" lon="4.1678">
        <ele>1148.91</ele>
        <time>2012-09-05T12:09:24Z</time>
      </trkpt>
      <trkpt lat="44.77164" lon="4.16785">
        <ele>1151.8</ele>
        <time>2012-09-05T12:09:55Z</time>
      </trkpt>
      <trkpt lat="44.7723" lon="4.16871">
        <ele>1151.32</ele>
        <time>2012-09-05T12:10:12Z</time>
      </trkpt>
      <trkpt lat="44.77279" lon="4.16977">
        <ele>1155.64</ele>
        <time>2012-09-05T12:10:34Z</time>
      </trkpt>
      <trkpt lat="44.77284" lon="4.17101">
        <ele>1159.49</ele>
        <time>2012-09-05T12:10:58Z</time>
      </trkpt>
      <trkpt lat="44.77335" lon="4.17188">
        <ele>1160.93</ele>
        <time>2012-09-05T12:11:20Z</time>
      </trkpt>
      <trkpt lat="44.77428" lon="4.17205">
        <ele>1159.01</ele>
        <time>2012-09-05T12:11:36Z</time>
      </trkpt>
      <trkpt lat="44.77511" lon="4.17251">
        <ele>1157.08</ele>
        <time>2012-09-05T12:11:50Z</time>
      </trkpt>
      <trkpt lat="44.77597" lon="4.1729">
        <ele>1158.53</ele>
        <time>2012-09-05T12:12:08Z</time>
      </trkpt>
      <trkpt lat="44.77628" lon="4.17411">
        <ele>1148.43</ele>
        <time>2012-09-05T12:12:19Z</time>
      </trkpt>
      <trkpt lat="44.77652" lon="4.1754">
        <ele>1146.99</ele>
        <time>2012-09-05T12:12:31Z</time>
      </trkpt>
      <trkpt lat="44.77734" lon="4.17573">
        <ele>1146.03</ele>
        <time>2012-09-05T12:12:45Z</time>
      </trkpt>
      <trkpt lat="44.77828" lon="4.17579">
        <ele>1146.03</ele>
        <time>2012-09-05T12:13:02Z</time>
      </trkpt>
      <trkpt lat="44.7792" lon="4.17599">
        <ele>1148.43</ele>
        <time>2012-09-05T12:13:21Z</time>
      </trkpt>
      <trkpt lat="44.77925" lon="4.17704">
        <ele>1151.32</ele>
        <time>2012-09-05T12:13:41Z</time>
      </trkpt>
      <trkpt lat="44.77865" lon="4.17802">
        <ele>1149.87</ele>
        <time>2012-09-05T12:13:57Z</time>
      </trkpt>
      <trkpt lat="44.7786" lon="4.17933">
        <ele>1150.35</ele>
        <time>2012-09-05T12:14:12Z</time>
      </trkpt>
      <trkpt lat="44.77871" lon="4.18058">
        <ele>1150.84</ele>
        <time>2012-09-05T12:14:27Z</time>
      </trkpt>
      <trkpt lat="44.77929" lon="4.18156">
        <ele>1151.8</ele>
        <time>2012-09-05T12:14:43Z</time>
      </trkpt>
      <trkpt lat="44.77991" lon="4.1825">
        <ele>1152.28</ele>
        <time>2012-09-05T12:15:00Z</time>
      </trkpt>
      <trkpt lat="44.78052" lon="4.18344">
        <ele>1154.2</ele>
        <time>2012-09-05T12:15:18Z</time>
      </trkpt>
      <trkpt lat="44.78116" lon="4.18442">
        <ele>1154.2</ele>
        <time>2012-09-05T12:15:36Z</time>
      </trkpt>
      <trkpt lat="44.78178" lon="4.18536">
        <ele>1155.64</ele>
        <time>2012-09-05T12:15:53Z</time>
      </trkpt>
      <trkpt lat="44.78257" lon="4.18593">
        <ele>1157.08</ele>
        <time>2012-09-05T12:16:11Z</time>
      </trkpt>
      <trkpt lat="44.78346" lon="4.18611">
        <ele>1159.01</ele>
        <time>2012-09-05T12:16:29Z</time>
      </trkpt>
      <trkpt lat="44.78437" lon="4.18615">
        <ele>1159.97</ele>
        <time>2012-09-05T12:16:48Z</time>
      </trkpt>
      <trkpt lat="44.78518" lon="4.18546">
        <ele>1161.41</ele>
        <time>2012-09-05T12:17:07Z</time>
      </trkpt>
      <trkpt lat="44.78602" lon="4.18487">
        <ele>1162.37</ele>
        <time>2012-09-05T12:17:27Z</time>
      </trkpt>
      <trkpt lat="44.7869" lon="4.18452">
        <ele>1164.29</ele>
        <time>2012-09-05T12:17:47Z</time>
      </trkpt>
      <trkpt lat="44.78772" lon="4.18506">
        <ele>1164.29</ele>
        <time>2012-09-05T12:18:07Z</time>
      </trkpt>
      <trkpt lat="44.78857" lon="4.18557">
        <ele>1163.33</ele>
        <time>2012-09-05T12:18:24Z</time>
      </trkpt>
      <trkpt lat="44.78946" lon="4.18558">
        <ele>1162.85</ele>
        <time>2012-09-05T12:18:41Z</time>
      </trkpt>
      <trkpt lat="44.79007" lon="4.18467">
        <ele>1164.77</ele>
        <time>2012-09-05T12:18:59Z</time>
      </trkpt>
      <trkpt lat="44.79074" lon="4.18378">
        <ele>1167.18</ele>
        <time>2012-09-05T12:19:23Z</time>
      </trkpt>
      <trkpt lat="44.79157" lon="4.18323">
        <ele>1168.14</ele>
        <time>2012-09-05T12:19:44Z</time>
      </trkpt>
      <trkpt lat="44.79245" lon="4.18361">
        <ele>1168.14</ele>
        <time>2012-09-05T12:20:03Z</time>
      </trkpt>
      <trkpt lat="44.79326" lon="4.18422">
        <ele>1168.62</ele>
        <time>2012-09-05T12:20:23Z</time>
      </trkpt>
      <trkpt lat="44.79409" lon="4.18482">
        <ele>1169.1</ele>
        <time>2012-09-05T12:20:44Z</time>
      </trkpt>
      <trkpt lat="44.795" lon="4.18482">
        <ele>1170.06</ele>
        <time>2012-09-05T12:21:05Z</time>
      </trkpt>
      <trkpt lat="44.79593" lon="4.18478">
        <ele>1171.02</ele>
        <time>2012-09-05T12:21:27Z</time>
      </trkpt>
      <trkpt lat="44.79686" lon="4.18495">
        <ele>1172.95</ele>
        <time>2012-09-05T12:21:50Z</time>
      </trkpt>
      <trkpt lat="44.79776" lon="4.18484">
        <ele>1175.35</ele>
        <time>2012-09-05T12:22:14Z</time>
      </trkpt>
      <trkpt lat="44.79868" lon="4.18447">
        <ele>1175.83</ele>
        <time>2012-09-05T12:22:37Z</time>
      </trkpt>
      <trkpt lat="44.79961" lon="4.18435">
        <ele>1176.79</ele>
        <time>2012-09-05T12:23:00Z</time>
      </trkpt>
      <trkpt lat="44.80054" lon="4.18422">
        <ele>1178.71</ele>
        <time>2012-09-05T12:23:27Z</time>
      </trkpt>
      <trkpt lat="44.80145" lon="4.1841">
        <ele>1180.16</ele>
        <time>2012-09-05T12:23:55Z</time>
      </trkpt>
      <trkpt lat="44.80233" lon="4.18429">
        <ele>1181.6</ele>
        <time>2012-09-05T12:24:22Z</time>
      </trkpt>
      <trkpt lat="44.80296" lon="4.18522">
        <ele>1184.96</ele>
        <time>2012-09-05T12:24:53Z</time>
      </trkpt>
      <trkpt lat="44.8034" lon="4.18629">
        <ele>1187.85</ele>
        <time>2012-09-05T12:25:22Z</time>
      </trkpt>
      <trkpt lat="44.80426" lon="4.1868">
        <ele>1187.85</ele>
        <time>2012-09-05T12:25:49Z</time>
      </trkpt>
      <trkpt lat="44.8051" lon="4.18727">
        <ele>1190.25</ele>
        <time>2012-09-05T12:26:17Z</time>
      </trkpt>
      <trkpt lat="44.80594" lon="4.18777">
        <ele>1196.5</ele>
        <time>2012-09-05T12:26:54Z</time>
      </trkpt>
      <trkpt lat="44.80681" lon="4.18828">
        <ele>1200.82</ele>
        <time>2012-09-05T12:27:30Z</time>
      </trkpt>
      <trkpt lat="44.80768" lon="4.18858">
        <ele>1207.07</ele>
        <time>2012-09-05T12:28:08Z</time>
      </trkpt>
      <trkpt lat="44.80852" lon="4.18804">
        <ele>1214.76</ele>
        <time>2012-09-05T12:28:51Z</time>
      </trkpt>
      <trkpt lat="44.80903" lon="4.18805">
        <ele>1221.49</ele>
        <time>2012-09-05T12:29:31Z</time>
      </trkpt>
      <trkpt lat="44.80872" lon="4.18925">
        <ele>1227.26</ele>
        <time>2012-09-05T12:30:09Z</time>
      </trkpt>
      <trkpt lat="44.80947" lon="4.18976">
        <ele>1234.47</ele>
        <time>2012-09-05T12:30:47Z</time>
      </trkpt>
      <trkpt lat="44.81039" lon="4.18983">
        <ele>1237.35</ele>
        <time>2012-09-05T12:31:51Z</time>
      </trkpt>
      <trkpt lat="44.81135" lon="4.18987">
        <ele>1240.24</ele>
        <time>2012-09-05T12:32:21Z</time>
      </trkpt>
      <trkpt lat="44.81222" lon="4.19021">
        <ele>1240.24</ele>
        <time>2012-09-05T12:32:46Z</time>
      </trkpt>
      <trkpt lat="44.8131" lon="4.19047">
        <ele>1242.16</ele>
        <time>2012-09-05T12:33:11Z</time>
      </trkpt>
      <trkpt lat="44.81401" lon="4.19084">
        <ele>1238.32</ele>
        <time>2012-09-05T12:33:49Z</time>
      </trkpt>
      <trkpt lat="44.81464" lon="4.19163">
        <ele>1240.72</ele>
        <time>2012-09-05T12:34:21Z</time>
      </trkpt>
      <trkpt lat="44.8149" lon="4.1928">
        <ele>1246.97</ele>
        <time>2012-09-05T12:35:59Z</time>
      </trkpt>
      <trkpt lat="44.81578" lon="4.19323">
        <ele>1246.49</ele>
        <time>2012-09-05T12:36:26Z</time>
      </trkpt>
      <trkpt lat="44.81672" lon="4.19344">
        <ele>1246.49</ele>
        <time>2012-09-05T12:36:47Z</time>
      </trkpt>
      <trkpt lat="44.81761" lon="4.19375">
        <ele>1247.93</ele>
        <time>2012-09-05T12:37:08Z</time>
      </trkpt>
      <trkpt lat="44.81853" lon="4.19346">
        <ele>1250.33</ele>
        <time>2012-09-05T12:37:30Z</time>
      </trkpt>
      <trkpt lat="44.81945" lon="4.19334">
        <ele>1248.89</ele>
        <time>2012-09-05T12:38:31Z</time>
      </trkpt>
      <trkpt lat="44.82039" lon="4.19351">
        <ele>1244.08</ele>
        <time>2012-09-05T12:38:47Z</time>
      </trkpt>
      <trkpt lat="44.82133" lon="4.19368">
        <ele>1239.76</ele>
        <time>2012-09-05T12:39:01Z</time>
      </trkpt>
      <trkpt lat="44.82228" lon="4.19382">
        <ele>1235.43</ele>
        <time>2012-09-05T12:39:14Z</time>
      </trkpt>
      <trkpt lat="44.82324" lon="4.19396">
        <ele>1232.55</ele>
        <time>2012-09-05T12:39:28Z</time>
      </trkpt>
      <trkpt lat="44.82395" lon="4.19455">
        <ele>1230.62</ele>
        <time>2012-09-05T12:39:43Z</time>
      </trkpt>
      <trkpt lat="44.82345" lon="4.1956">
        <ele>1234.95</ele>
        <time>2012-09-05T12:40:02Z</time>
      </trkpt>
      <trkpt lat="44.82263" lon="4.19613">
        <ele>1238.8</ele>
        <time>2012-09-05T12:40:27Z</time>
      </trkpt>
      <trkpt lat="44.82176" lon="4.19646">
        <ele>1243.6</ele>
        <time>2012-09-05T12:40:53Z</time>
      </trkpt>
      <trkpt lat="44.82089" lon="4.1969">
        <ele>1247.45</ele>
        <time>2012-09-05T12:41:20Z</time>
      </trkpt>
      <trkpt lat="44.82007" lon="4.19749">
        <ele>1252.25</ele>
        <time>2012-09-05T12:41:48Z</time>
      </trkpt>
      <trkpt lat="44.81932" lon="4.19825">
        <ele>1255.62</ele>
        <time>2012-09-05T12:42:16Z</time>
      </trkpt>
      <trkpt lat="44.8187" lon="4.19918">
        <ele>1259.94</ele>
        <time>2012-09-05T12:42:44Z</time>
      </trkpt>
      <trkpt lat="44.81814" lon="4.20019">
        <ele>1264.27</ele>
        <time>2012-09-05T12:43:12Z</time>
      </trkpt>
      <trkpt lat="44.81762" lon="4.20127">
        <ele>1268.6</ele>
        <time>2012-09-05T12:43:41Z</time>
      </trkpt>
      <trkpt lat="44.81702" lon="4.20223">
        <ele>1272.92</ele>
        <time>2012-09-05T12:44:10Z</time>
      </trkpt>
      <trkpt lat="44.81616" lon="4.20272">
        <ele>1276.77</ele>
        <time>2012-09-05T12:44:40Z</time>
      </trkpt>
      <trkpt lat="44.81526" lon="4.20316">
        <ele>1282.06</ele>
        <time>2012-09-05T12:45:10Z</time>
      </trkpt>
      <trkpt lat="44.81448" lon="4.20384">
        <ele>1285.42</ele>
        <time>2012-09-05T12:45:37Z</time>
      </trkpt>
      <trkpt lat="44.81374" lon="4.20456">
        <ele>1286.86</ele>
        <time>2012-09-05T12:46:01Z</time>
      </trkpt>
      <trkpt lat="44.81297" lon="4.20527">
        <ele>1289.27</ele>
        <time>2012-09-05T12:46:24Z</time>
      </trkpt>
      <trkpt lat="44.81223" lon="4.206">
        <ele>1290.23</ele>
        <time>2012-09-05T12:46:47Z</time>
      </trkpt>
      <trkpt lat="44.81151" lon="4.20678">
        <ele>1291.67</ele>
        <time>2012-09-05T12:47:09Z</time>
      </trkpt>
      <trkpt lat="44.8108" lon="4.20756">
        <ele>1292.63</ele>
        <time>2012-09-05T12:47:31Z</time>
      </trkpt>
      <trkpt lat="44.81007" lon="4.20836">
        <ele>1294.55</ele>
        <time>2012-09-05T12:47:53Z</time>
      </trkpt>
      <trkpt lat="44.80935" lon="4.20915">
        <ele>1296.48</ele>
        <time>2012-09-05T12:48:16Z</time>
      </trkpt>
      <trkpt lat="44.80863" lon="4.20995">
        <ele>1298.88</ele>
        <time>2012-09-05T12:48:40Z</time>
      </trkpt>
      <trkpt lat="44.80778" lon="4.21048">
        <ele>1294.07</ele>
        <time>2012-09-05T12:49:38Z</time>
      </trkpt>
      <trkpt lat="44.80686" lon="4.21081">
        <ele>1287.34</ele>
        <time>2012-09-05T12:49:48Z</time>
      </trkpt>
      <trkpt lat="44.80593" lon="4.21123">
        <ele>1282.06</ele>
        <time>2012-09-05T12:49:57Z</time>
      </trkpt>
      <trkpt lat="44.80514" lon="4.21187">
        <ele>1277.25</ele>
        <time>2012-09-05T12:50:05Z</time>
      </trkpt>
      <trkpt lat="44.80433" lon="4.21253">
        <ele>1275.33</ele>
        <time>2012-09-05T12:50:14Z</time>
      </trkpt>
      <trkpt lat="44.80352" lon="4.2132">
        <ele>1271.96</ele>
        <time>2012-09-05T12:50:24Z</time>
      </trkpt>
      <trkpt lat="44.80273" lon="4.21382">
        <ele>1270.04</ele>
        <time>2012-09-05T12:50:34Z</time>
      </trkpt>
      <trkpt lat="44.80193" lon="4.21448">
        <ele>1267.64</ele>
        <time>2012-09-05T12:50:45Z</time>
      </trkpt>
      <trkpt lat="44.8013" lon="4.21541">
        <ele>1262.35</ele>
        <time>2012-09-05T12:51:24Z</time>
      </trkpt>
      <trkpt lat="44.80092" lon="4.21664">
        <ele>1258.02</ele>
        <time>2012-09-05T12:51:36Z</time>
      </trkpt>
      <trkpt lat="44.8001" lon="4.21702">
        <ele>1256.58</ele>
        <time>2012-09-05T12:51:48Z</time>
      </trkpt>
      <trkpt lat="44.79923" lon="4.21714">
        <ele>1255.62</ele>
        <time>2012-09-05T12:52:00Z</time>
      </trkpt>
      <trkpt lat="44.79861" lon="4.21814">
        <ele>1252.74</ele>
        <time>2012-09-05T12:52:12Z</time>
      </trkpt>
      <trkpt lat="44.79799" lon="4.21908">
        <ele>1250.81</ele>
        <time>2012-09-05T12:52:23Z</time>
      </trkpt>
      <trkpt lat="44.7975" lon="4.22009">
        <ele>1248.89</ele>
        <time>2012-09-05T12:52:35Z</time>
      </trkpt>
      <trkpt lat="44.79719" lon="4.22135">
        <ele>1242.64</ele>
        <time>2012-09-05T12:52:47Z</time>
      </trkpt>
      <trkpt lat="44.79669" lon="4.2225">
        <ele>1241.68</ele>
        <time>2012-09-05T12:52:59Z</time>
      </trkpt>
      <trkpt lat="44.79638" lon="4.22371">
        <ele>1236.39</ele>
        <time>2012-09-05T12:53:10Z</time>
      </trkpt>
      <trkpt lat="44.79613" lon="4.22497">
        <ele>1232.07</ele>
        <time>2012-09-05T12:53:20Z</time>
      </trkpt>
      <trkpt lat="44.79531" lon="4.22544">
        <ele>1234.47</ele>
        <time>2012-09-05T12:53:32Z</time>
      </trkpt>
      <trkpt lat="44.79445" lon="4.22591">
        <ele>1235.43</ele>
        <time>2012-09-05T12:53:48Z</time>
      </trkpt>
      <trkpt lat="44.79368" lon="4.22658">
        <ele>1237.35</ele>
        <time>2012-09-05T12:54:04Z</time>
      </trkpt>
      <trkpt lat="44.79293" lon="4.22721">
        <ele>1238.32</ele>
        <time>2012-09-05T12:54:21Z</time>
      </trkpt>
      <trkpt lat="44.79203" lon="4.22732">
        <ele>1240.24</ele>
        <time>2012-09-05T12:54:40Z</time>
      </trkpt>
      <trkpt lat="44.79149" lon="4.22637">
        <ele>1243.6</ele>
        <time>2012-09-05T12:55:01Z</time>
      </trkpt>
      <trkpt lat="44.79085" lon="4.22548">
        <ele>1240.24</ele>
        <time>2012-09-05T12:55:19Z</time>
      </trkpt>
      <trkpt lat="44.79003" lon="4.2252">
        <ele>1235.43</ele>
        <time>2012-09-05T12:55:31Z</time>
      </trkpt>
      <trkpt lat="44.79004" lon="4.22646">
        <ele>1230.62</ele>
        <time>2012-09-05T12:55:43Z</time>
      </trkpt>
      <trkpt lat="44.78994" lon="4.22771">
        <ele>1225.82</ele>
        <time>2012-09-05T12:55:54Z</time>
      </trkpt>
      <trkpt lat="44.78936" lon="4.22832">
        <ele>1224.38</ele>
        <time>2012-09-05T12:56:06Z</time>
      </trkpt>
      <trkpt lat="44.78927" lon="4.22706">
        <ele>1223.9</ele>
        <time>2012-09-05T12:56:21Z</time>
      </trkpt>
      <trkpt lat="44.78892" lon="4.22586">
        <ele>1222.93</ele>
        <time>2012-09-05T12:56:36Z</time>
      </trkpt>
      <trkpt lat="44.78845" lon="4.22475">
        <ele>1221.01</ele>
        <time>2012-09-05T12:56:51Z</time>
      </trkpt>
      <trkpt lat="44.78756" lon="4.2245">
        <ele>1219.57</ele>
        <time>2012-09-05T12:57:03Z</time>
      </trkpt>
      <trkpt lat="44.78668" lon="4.22428">
        <ele>1219.09</ele>
        <time>2012-09-05T12:57:14Z</time>
      </trkpt>
      <trkpt lat="44.78577" lon="4.22396">
        <ele>1220.05</ele>
        <time>2012-09-05T12:57:27Z</time>
      </trkpt>
      <trkpt lat="44.78486" lon="4.22365">
        <ele>1220.05</ele>
        <time>2012-09-05T12:57:39Z</time>
      </trkpt>
      <trkpt lat="44.78396" lon="4.2234">
        <ele>1218.13</ele>
        <time>2012-09-05T12:57:50Z</time>
      </trkpt>
      <trkpt lat="44.78306" lon="4.22301">
        <ele>1217.65</ele>
        <time>2012-09-05T12:58:02Z</time>
      </trkpt>
      <trkpt lat="44.78211" lon="4.22319">
        <ele>1217.65</ele>
        <time>2012-09-05T12:58:15Z</time>
      </trkpt>
      <trkpt lat="44.7813" lon="4.22372">
        <ele>1216.69</ele>
        <time>2012-09-05T12:58:29Z</time>
      </trkpt>
      <trkpt lat="44.7806" lon="4.22386">
        <ele>1215.24</ele>
        <time>2012-09-05T12:58:43Z</time>
      </trkpt>
      <trkpt lat="44.78054" lon="4.22258">
        <ele>1218.13</ele>
        <time>2012-09-05T12:59:00Z</time>
      </trkpt>
      <trkpt lat="44.78016" lon="4.22144">
        <ele>1221.49</ele>
        <time>2012-09-05T12:59:20Z</time>
      </trkpt>
      <trkpt lat="44.77979" lon="4.22035">
        <ele>1224.86</ele>
        <time>2012-09-05T12:59:41Z</time>
      </trkpt>
      <trkpt lat="44.77967" lon="4.21906">
        <ele>1227.74</ele>
        <time>2012-09-05T13:00:04Z</time>
      </trkpt>
      <trkpt lat="44.77946" lon="4.21783">
        <ele>1230.62</ele>
        <time>2012-09-05T13:00:28Z</time>
      </trkpt>
      <trkpt lat="44.77871" lon="4.2176">
        <ele>1232.07</ele>
        <time>2012-09-05T13:00:58Z</time>
      </trkpt>
      <trkpt lat="44.77782" lon="4.21768">
        <ele>1232.55</ele>
        <time>2012-09-05T13:01:20Z</time>
      </trkpt>
      <trkpt lat="44.77693" lon="4.21782">
        <ele>1233.99</ele>
        <time>2012-09-05T13:01:42Z</time>
      </trkpt>
      <trkpt lat="44.77645" lon="4.21894">
        <ele>1234.95</ele>
        <time>2012-09-05T13:02:02Z</time>
      </trkpt>
      <trkpt lat="44.77627" lon="4.22023">
        <ele>1235.91</ele>
        <time>2012-09-05T13:02:22Z</time>
      </trkpt>
      <trkpt lat="44.77612" lon="4.22135">
        <ele>1235.91</ele>
        <time>2012-09-05T13:02:41Z</time>
      </trkpt>
      <trkpt lat="44.77566" lon="4.22253">
        <ele>1237.35</ele>
        <time>2012-09-05T13:03:01Z</time>
      </trkpt>
      <trkpt lat="44.77514" lon="4.22363">
        <ele>1235.91</ele>
        <time>2012-09-05T13:03:19Z</time>
      </trkpt>
      <trkpt lat="44.77481" lon="4.22273">
        <ele>1238.32</ele>
        <time>2012-09-05T13:03:39Z</time>
      </trkpt>
      <trkpt lat="44.7748" lon="4.22261">
        <ele>1238.32</ele>
        <time>2012-09-05T13:03:55Z</time>
      </trkpt>
      <trkpt lat="44.77476" lon="4.22255">
        <ele>1239.76</ele>
        <time>2012-09-05T13:07:14Z</time>
      </trkpt>
      <trkpt lat="44.77443" lon="4.2214">
        <ele>1241.2</ele>
        <time>2012-09-05T13:07:54Z</time>
      </trkpt>
      <trkpt lat="44.77416" lon="4.22014">
        <ele>1244.08</ele>
        <time>2012-09-05T13:08:25Z</time>
      </trkpt>
      <trkpt lat="44.77393" lon="4.21888">
        <ele>1247.45</ele>
        <time>2012-09-05T13:08:54Z</time>
      </trkpt>
      <trkpt lat="44.7738" lon="4.21762">
        <ele>1250.81</ele>
        <time>2012-09-05T13:11:13Z</time>
      </trkpt>
      <trkpt lat="44.77309" lon="4.21688">
        <ele>1254.18</ele>
        <time>2012-09-05T13:11:42Z</time>
      </trkpt>
      <trkpt lat="44.77229" lon="4.21624">
        <ele>1257.06</ele>
        <time>2012-09-05T13:12:09Z</time>
      </trkpt>
      <trkpt lat="44.77152" lon="4.21553">
        <ele>1257.54</ele>
        <time>2012-09-05T13:12:34Z</time>
      </trkpt>
      <trkpt lat="44.77079" lon="4.21478">
        <ele>1251.29</ele>
        <time>2012-09-05T13:12:47Z</time>
      </trkpt>
      <trkpt lat="44.76993" lon="4.21437">
        <ele>1245.53</ele>
        <time>2012-09-05T13:12:58Z</time>
      </trkpt>
      <trkpt lat="44.76906" lon="4.21495">
        <ele>1240.24</ele>
        <time>2012-09-05T13:13:08Z</time>
      </trkpt>
      <trkpt lat="44.76821" lon="4.21532">
        <ele>1233.51</ele>
        <time>2012-09-05T13:13:18Z</time>
      </trkpt>
      <trkpt lat="44.76782" lon="4.21646">
        <ele>1231.11</ele>
        <time>2012-09-05T13:14:46Z</time>
      </trkpt>
      <trkpt lat="44.76732" lon="4.21757">
        <ele>1226.3</ele>
        <time>2012-09-05T13:14:59Z</time>
      </trkpt>
      <trkpt lat="44.76664" lon="4.21849">
        <ele>1220.53</ele>
        <time>2012-09-05T13:15:09Z</time>
      </trkpt>
      <trkpt lat="44.76566" lon="4.21878">
        <ele>1214.28</ele>
        <time>2012-09-05T13:15:19Z</time>
      </trkpt>
      <trkpt lat="44.76501" lon="4.21794">
        <ele>1207.07</ele>
        <time>2012-09-05T13:15:30Z</time>
      </trkpt>
      <trkpt lat="44.76457" lon="4.21672">
        <ele>1200.82</ele>
        <time>2012-09-05T13:15:41Z</time>
      </trkpt>
      <trkpt lat="44.76398" lon="4.21573">
        <ele>1196.02</ele>
        <time>2012-09-05T13:15:52Z</time>
      </trkpt>
      <trkpt lat="44.76315" lon="4.21521">
        <ele>1190.25</ele>
        <time>2012-09-05T13:16:03Z</time>
      </trkpt>
      <trkpt lat="44.76268" lon="4.21435">
        <ele>1184</ele>
        <time>2012-09-05T13:16:16Z</time>
      </trkpt>
      <trkpt lat="44.7625" lon="4.21308">
        <ele>1178.23</ele>
        <time>2012-09-05T13:16:27Z</time>
      </trkpt>
      <trkpt lat="44.7619" lon="4.21219">
        <ele>1171.5</ele>
        <time>2012-09-05T13:16:40Z</time>
      </trkpt>
      <trkpt lat="44.76128" lon="4.21138">
        <ele>1164.29</ele>
        <time>2012-09-05T13:16:52Z</time>
      </trkpt>
      <trkpt lat="44.7613" lon="4.21011">
        <ele>1157.56</ele>
        <time>2012-09-05T13:17:03Z</time>
      </trkpt>
      <trkpt lat="44.76147" lon="4.20901">
        <ele>1152.76</ele>
        <time>2012-09-05T13:17:15Z</time>
      </trkpt>
      <trkpt lat="44.76062" lon="4.2089">
        <ele>1146.03</ele>
        <time>2012-09-05T13:18:01Z</time>
      </trkpt>
      <trkpt lat="44.75981" lon="4.20956">
        <ele>1139.78</ele>
        <time>2012-09-05T13:18:17Z</time>
      </trkpt>
      <trkpt lat="44.75899" lon="4.20998">
        <ele>1134.01</ele>
        <time>2012-09-05T13:18:32Z</time>
      </trkpt>
      <trkpt lat="44.75885" lon="4.21139">
        <ele>1128.24</ele>
        <time>2012-09-05T13:18:45Z</time>
      </trkpt>
      <trkpt lat="44.75867" lon="4.21265">
        <ele>1122.96</ele>
        <time>2012-09-05T13:18:56Z</time>
      </trkpt>
      <trkpt lat="44.7581" lon="4.21369">
        <ele>1117.67</ele>
        <time>2012-09-05T13:19:09Z</time>
      </trkpt>
      <trkpt lat="44.75722" lon="4.21387">
        <ele>1111.42</ele>
        <time>2012-09-05T13:19:21Z</time>
      </trkpt>
      <trkpt lat="44.75646" lon="4.21441">
        <ele>1105.65</ele>
        <time>2012-09-05T13:19:33Z</time>
      </trkpt>
      <trkpt lat="44.75594" lon="4.21544">
        <ele>1100.37</ele>
        <time>2012-09-05T13:19:45Z</time>
      </trkpt>
      <trkpt lat="44.75553" lon="4.21657">
        <ele>1095.08</ele>
        <time>2012-09-05T13:19:57Z</time>
      </trkpt>
      <trkpt lat="44.75492" lon="4.21757">
        <ele>1088.83</ele>
        <time>2012-09-05T13:20:07Z</time>
      </trkpt>
      <trkpt lat="44.75441" lon="4.21863">
        <ele>1083.54</ele>
        <time>2012-09-05T13:20:20Z</time>
      </trkpt>
      <trkpt lat="44.75419" lon="4.21986">
        <ele>1077.78</ele>
        <time>2012-09-05T13:20:31Z</time>
      </trkpt>
      <trkpt lat="44.75381" lon="4.22111">
        <ele>1072.01</ele>
        <time>2012-09-05T13:20:42Z</time>
      </trkpt>
      <trkpt lat="44.75325" lon="4.22214">
        <ele>1066.24</ele>
        <time>2012-09-05T13:20:52Z</time>
      </trkpt>
      <trkpt lat="44.75247" lon="4.2223">
        <ele>1060.47</ele>
        <time>2012-09-05T13:21:04Z</time>
      </trkpt>
      <trkpt lat="44.75158" lon="4.22211">
        <ele>1054.7</ele>
        <time>2012-09-05T13:21:16Z</time>
      </trkpt>
      <trkpt lat="44.75072" lon="4.22257">
        <ele>1048.45</ele>
        <time>2012-09-05T13:21:27Z</time>
      </trkpt>
      <trkpt lat="44.74996" lon="4.22334">
        <ele>1043.17</ele>
        <time>2012-09-05T13:21:39Z</time>
      </trkpt>
      <trkpt lat="44.74912" lon="4.22378">
        <ele>1037.88</ele>
        <time>2012-09-05T13:21:52Z</time>
      </trkpt>
      <trkpt lat="44.7491" lon="4.22411">
        <ele>1032.11</ele>
        <time>2012-09-05T13:22:53Z</time>
      </trkpt>
      <trkpt lat="44.74995" lon="4.22379">
        <ele>1025.86</ele>
        <time>2012-09-05T13:23:08Z</time>
      </trkpt>
      <trkpt lat="44.75075" lon="4.22349">
        <ele>1020.1</ele>
        <time>2012-09-05T13:23:20Z</time>
      </trkpt>
      <trkpt lat="44.75163" lon="4.2232">
        <ele>1013.37</ele>
        <time>2012-09-05T13:23:32Z</time>
      </trkpt>
      <trkpt lat="44.75221" lon="4.22418">
        <ele>1009.04</ele>
        <time>2012-09-05T13:23:43Z</time>
      </trkpt>
      <trkpt lat="44.75294" lon="4.22497">
        <ele>1001.83</ele>
        <time>2012-09-05T13:23:54Z</time>
      </trkpt>
      <trkpt lat="44.75379" lon="4.22444">
        <ele>996.54</ele>
        <time>2012-09-05T13:24:05Z</time>
      </trkpt>
      <trkpt lat="44.75453" lon="4.2236">
        <ele>989.81</ele>
        <time>2012-09-05T13:24:20Z</time>
      </trkpt>
      <trkpt lat="44.75499" lon="4.22298">
        <ele>983.09</ele>
        <time>2012-09-05T13:24:36Z</time>
      </trkpt>
      <trkpt lat="44.75454" lon="4.22405">
        <ele>977.32</ele>
        <time>2012-09-05T13:24:49Z</time>
      </trkpt>
      <trkpt lat="44.75399" lon="4.22505">
        <ele>972.03</ele>
        <time>2012-09-05T13:25:00Z</time>
      </trkpt>
      <trkpt lat="44.75335" lon="4.22599">
        <ele>966.74</ele>
        <time>2012-09-05T13:25:10Z</time>
      </trkpt>
      <trkpt lat="44.75276" lon="4.22635">
        <ele>960.98</ele>
        <time>2012-09-05T13:25:23Z</time>
      </trkpt>
      <trkpt lat="44.75208" lon="4.22545">
        <ele>955.21</ele>
        <time>2012-09-05T13:25:36Z</time>
      </trkpt>
      <trkpt lat="44.75127" lon="4.22487">
        <ele>950.4</ele>
        <time>2012-09-05T13:25:51Z</time>
      </trkpt>
      <trkpt lat="44.7505" lon="4.22571">
        <ele>943.19</ele>
        <time>2012-09-05T13:26:09Z</time>
      </trkpt>
      <trkpt lat="44.74975" lon="4.22655">
        <ele>936.46</ele>
        <time>2012-09-05T13:26:21Z</time>
      </trkpt>
      <trkpt lat="44.7494" lon="4.22791">
        <ele>930.69</ele>
        <time>2012-09-05T13:26:32Z</time>
      </trkpt>
      <trkpt lat="44.74892" lon="4.22907">
        <ele>924.45</ele>
        <time>2012-09-05T13:26:42Z</time>
      </trkpt>
      <trkpt lat="44.74834" lon="4.23019">
        <ele>919.16</ele>
        <time>2012-09-05T13:26:52Z</time>
      </trkpt>
      <trkpt lat="44.74829" lon="4.23143">
        <ele>913.39</ele>
        <time>2012-09-05T13:27:03Z</time>
      </trkpt>
      <trkpt lat="44.74766" lon="4.23174">
        <ele>908.58</ele>
        <time>2012-09-05T13:27:35Z</time>
      </trkpt>
      <trkpt lat="44.74707" lon="4.23069">
        <ele>901.85</ele>
        <time>2012-09-05T13:27:48Z</time>
      </trkpt>
      <trkpt lat="44.74637" lon="4.22987">
        <ele>896.09</ele>
        <time>2012-09-05T13:27:59Z</time>
      </trkpt>
      <trkpt lat="44.74548" lon="4.2297">
        <ele>890.32</ele>
        <time>2012-09-05T13:28:10Z</time>
      </trkpt>
      <trkpt lat="44.74458" lon="4.22946">
        <ele>885.03</ele>
        <time>2012-09-05T13:28:21Z</time>
      </trkpt>
      <trkpt lat="44.7446" lon="4.22977">
        <ele>879.26</ele>
        <time>2012-09-05T13:28:35Z</time>
      </trkpt>
      <trkpt lat="44.74542" lon="4.23015">
        <ele>874.46</ele>
        <time>2012-09-05T13:28:48Z</time>
      </trkpt>
      <trkpt lat="44.74625" lon="4.23064">
        <ele>869.17</ele>
        <time>2012-09-05T13:28:59Z</time>
      </trkpt>
      <trkpt lat="44.74658" lon="4.23186">
        <ele>863.4</ele>
        <time>2012-09-05T13:29:10Z</time>
      </trkpt>
      <trkpt lat="44.74708" lon="4.23305">
        <ele>857.15</ele>
        <time>2012-09-05T13:29:21Z</time>
      </trkpt>
      <trkpt lat="44.74749" lon="4.23424">
        <ele>851.38</ele>
        <time>2012-09-05T13:29:32Z</time>
      </trkpt>
      <trkpt lat="44.74791" lon="4.23546">
        <ele>845.62</ele>
        <time>2012-09-05T13:29:44Z</time>
      </trkpt>
      <trkpt lat="44.74771" lon="4.23663">
        <ele>840.33</ele>
        <time>2012-09-05T13:29:56Z</time>
      </trkpt>
      <trkpt lat="44.74718" lon="4.23772">
        <ele>834.56</ele>
        <time>2012-09-05T13:30:07Z</time>
      </trkpt>
      <trkpt lat="44.74684" lon="4.23897">
        <ele>831.68</ele>
        <time>2012-09-05T13:30:19Z</time>
      </trkpt>
      <trkpt lat="44.74645" lon="4.24017">
        <ele>829.27</ele>
        <time>2012-09-05T13:30:33Z</time>
      </trkpt>
      <trkpt lat="44.74698" lon="4.24084">
        <ele>827.83</ele>
        <time>2012-09-05T13:30:49Z</time>
      </trkpt>
      <trkpt lat="44.74733" lon="4.23994">
        <ele>825.91</ele>
        <time>2012-09-05T13:31:06Z</time>
      </trkpt>
      <trkpt lat="44.74775" lon="4.23871">
        <ele>823.51</ele>
        <time>2012-09-05T13:31:22Z</time>
      </trkpt>
      <trkpt lat="44.74812" lon="4.23755">
        <ele>821.1</ele>
        <time>2012-09-05T13:31:36Z</time>
      </trkpt>
      <trkpt lat="44.74844" lon="4.23629">
        <ele>817.26</ele>
        <time>2012-09-05T13:31:50Z</time>
      </trkpt>
      <trkpt lat="44.74883" lon="4.23507">
        <ele>810.53</ele>
        <time>2012-09-05T13:32:01Z</time>
      </trkpt>
      <trkpt lat="44.74936" lon="4.23397">
        <ele>804.28</ele>
        <time>2012-09-05T13:32:11Z</time>
      </trkpt>
      <trkpt lat="44.74978" lon="4.23279">
        <ele>799.47</ele>
        <time>2012-09-05T13:32:21Z</time>
      </trkpt>
      <trkpt lat="44.7505" lon="4.23198">
        <ele>794.19</ele>
        <time>2012-09-05T13:32:31Z</time>
      </trkpt>
      <trkpt lat="44.75111" lon="4.23103">
        <ele>788.42</ele>
        <time>2012-09-05T13:32:41Z</time>
      </trkpt>
      <trkpt lat="44.75154" lon="4.23159">
        <ele>782.17</ele>
        <time>2012-09-05T13:32:54Z</time>
      </trkpt>
      <trkpt lat="44.75161" lon="4.23293">
        <ele>776.4</ele>
        <time>2012-09-05T13:33:04Z</time>
      </trkpt>
      <trkpt lat="44.75197" lon="4.23389">
        <ele>771.11</ele>
        <time>2012-09-05T13:33:16Z</time>
      </trkpt>
      <trkpt lat="44.7528" lon="4.23339">
        <ele>764.39</ele>
        <time>2012-09-05T13:33:29Z</time>
      </trkpt>
      <trkpt lat="44.7537" lon="4.23372">
        <ele>758.62</ele>
        <time>2012-09-05T13:33:42Z</time>
      </trkpt>
      <trkpt lat="44.75457" lon="4.23327">
        <ele>753.33</ele>
        <time>2012-09-05T13:33:54Z</time>
      </trkpt>
      <trkpt lat="44.75543" lon="4.2327">
        <ele>747.56</ele>
        <time>2012-09-05T13:34:05Z</time>
      </trkpt>
      <trkpt lat="44.75636" lon="4.23245">
        <ele>741.31</ele>
        <time>2012-09-05T13:34:17Z</time>
      </trkpt>
      <trkpt lat="44.75729" lon="4.23226">
        <ele>735.55</ele>
        <time>2012-09-05T13:34:29Z</time>
      </trkpt>
      <trkpt lat="44.75694" lon="4.2327">
        <ele>731.22</ele>
        <time>2012-09-05T13:34:44Z</time>
      </trkpt>
      <trkpt lat="44.75604" lon="4.23291">
        <ele>724.01</ele>
        <time>2012-09-05T13:34:55Z</time>
      </trkpt>
      <trkpt lat="44.75523" lon="4.23363">
        <ele>718.72</ele>
        <time>2012-09-05T13:35:07Z</time>
      </trkpt>
      <trkpt lat="44.75445" lon="4.23444">
        <ele>711.99</ele>
        <time>2012-09-05T13:35:18Z</time>
      </trkpt>
      <trkpt lat="44.75359" lon="4.23491">
        <ele>705.75</ele>
        <time>2012-09-05T13:35:29Z</time>
      </trkpt>
      <trkpt lat="44.7527" lon="4.23555">
        <ele>699.98</ele>
        <time>2012-09-05T13:35:40Z</time>
      </trkpt>
      <trkpt lat="44.75198" lon="4.23643">
        <ele>694.69</ele>
        <time>2012-09-05T13:35:51Z</time>
      </trkpt>
      <trkpt lat="44.75106" lon="4.23662">
        <ele>688.92</ele>
        <time>2012-09-05T13:36:05Z</time>
      </trkpt>
      <trkpt lat="44.75093" lon="4.23793">
        <ele>681.71</ele>
        <time>2012-09-05T13:36:17Z</time>
      </trkpt>
      <trkpt lat="44.75072" lon="4.23918">
        <ele>676.42</ele>
        <time>2012-09-05T13:36:29Z</time>
      </trkpt>
      <trkpt lat="44.75019" lon="4.24021">
        <ele>670.18</ele>
        <time>2012-09-05T13:36:42Z</time>
      </trkpt>
      <trkpt lat="44.74996" lon="4.24144">
        <ele>664.41</ele>
        <time>2012-09-05T13:36:53Z</time>
      </trkpt>
      <trkpt lat="44.74958" lon="4.24262">
        <ele>658.16</ele>
        <time>2012-09-05T13:37:04Z</time>
      </trkpt>
      <trkpt lat="44.74936" lon="4.24386">
        <ele>653.83</ele>
        <time>2012-09-05T13:37:15Z</time>
      </trkpt>
      <trkpt lat="44.74881" lon="4.24484">
        <ele>646.62</ele>
        <time>2012-09-05T13:37:27Z</time>
      </trkpt>
      <trkpt lat="44.74797" lon="4.24538">
        <ele>639.89</ele>
        <time>2012-09-05T13:37:39Z</time>
      </trkpt>
      <trkpt lat="44.74737" lon="4.24619">
        <ele>634.61</ele>
        <time>2012-09-05T13:37:53Z</time>
      </trkpt>
      <trkpt lat="44.747" lon="4.24732">
        <ele>629.8</ele>
        <time>2012-09-05T13:38:06Z</time>
      </trkpt>
      <trkpt lat="44.74642" lon="4.24744">
        <ele>622.59</ele>
        <time>2012-09-05T13:38:22Z</time>
      </trkpt>
      <trkpt lat="44.7455" lon="4.2475">
        <ele>616.82</ele>
        <time>2012-09-05T13:38:35Z</time>
      </trkpt>
      <trkpt lat="44.74475" lon="4.24674">
        <ele>610.57</ele>
        <time>2012-09-05T13:38:47Z</time>
      </trkpt>
      <trkpt lat="44.74395" lon="4.24606">
        <ele>603.85</ele>
        <time>2012-09-05T13:39:00Z</time>
      </trkpt>
      <trkpt lat="44.74308" lon="4.24576">
        <ele>598.56</ele>
        <time>2012-09-05T13:39:13Z</time>
      </trkpt>
      <trkpt lat="44.7424" lon="4.24488">
        <ele>592.31</ele>
        <time>2012-09-05T13:39:26Z</time>
      </trkpt>
      <trkpt lat="44.74161" lon="4.24417">
        <ele>586.54</ele>
        <time>2012-09-05T13:39:41Z</time>
      </trkpt>
      <trkpt lat="44.74117" lon="4.24306">
        <ele>579.33</ele>
        <time>2012-09-05T13:39:55Z</time>
      </trkpt>
      <trkpt lat="44.74103" lon="4.24185">
        <ele>575.01</ele>
        <time>2012-09-05T13:40:08Z</time>
      </trkpt>
      <trkpt lat="44.74076" lon="4.24202">
        <ele>567.8</ele>
        <time>2012-09-05T13:40:26Z</time>
      </trkpt>
      <trkpt lat="44.74053" lon="4.24324">
        <ele>559.14</ele>
        <time>2012-09-05T13:40:42Z</time>
      </trkpt>
      <trkpt lat="44.74012" lon="4.24424">
        <ele>555.78</ele>
        <time>2012-09-05T13:48:16Z</time>
      </trkpt>
      <trkpt lat="44.7395" lon="4.24526">
        <ele>550.97</ele>
        <time>2012-09-05T13:48:34Z</time>
      </trkpt>
      <trkpt lat="44.73922" lon="4.24652">
        <ele>548.57</ele>
        <time>2012-09-05T13:48:48Z</time>
      </trkpt>
      <trkpt lat="44.7389" lon="4.24771">
        <ele>546.17</ele>
        <time>2012-09-05T13:49:00Z</time>
      </trkpt>
      <trkpt lat="44.7385" lon="4.24886">
        <ele>544.24</ele>
        <time>2012-09-05T13:49:12Z</time>
      </trkpt>
      <trkpt lat="44.73808" lon="4.25">
        <ele>543.28</ele>
        <time>2012-09-05T13:49:25Z</time>
      </trkpt>
      <trkpt lat="44.73736" lon="4.25092">
        <ele>541.36</ele>
        <time>2012-09-05T13:49:38Z</time>
      </trkpt>
      <trkpt lat="44.7367" lon="4.2518">
        <ele>539.92</ele>
        <time>2012-09-05T13:49:50Z</time>
      </trkpt>
      <trkpt lat="44.73601" lon="4.25267">
        <ele>538.48</ele>
        <time>2012-09-05T13:50:05Z</time>
      </trkpt>
      <trkpt lat="44.73518" lon="4.25317">
        <ele>535.11</ele>
        <time>2012-09-05T13:50:18Z</time>
      </trkpt>
      <trkpt lat="44.73429" lon="4.2537">
        <ele>531.75</ele>
        <time>2012-09-05T13:50:29Z</time>
      </trkpt>
      <trkpt lat="44.73337" lon="4.25383">
        <ele>528.86</ele>
        <time>2012-09-05T13:50:41Z</time>
      </trkpt>
      <trkpt lat="44.73255" lon="4.25437">
        <ele>526.46</ele>
        <time>2012-09-05T13:50:52Z</time>
      </trkpt>
      <trkpt lat="44.73167" lon="4.25481">
        <ele>520.69</ele>
        <time>2012-09-05T13:51:02Z</time>
      </trkpt>
      <trkpt lat="44.73083" lon="4.25527">
        <ele>516.85</ele>
        <time>2012-09-05T13:51:11Z</time>
      </trkpt>
      <trkpt lat="44.72996" lon="4.25581">
        <ele>511.08</ele>
        <time>2012-09-05T13:51:20Z</time>
      </trkpt>
      <trkpt lat="44.72931" lon="4.25682">
        <ele>507.23</ele>
        <time>2012-09-05T13:51:30Z</time>
      </trkpt>
      <trkpt lat="44.72875" lon="4.25786">
        <ele>504.83</ele>
        <time>2012-09-05T13:51:41Z</time>
      </trkpt>
      <trkpt lat="44.7281" lon="4.25857">
        <ele>501.95</ele>
        <time>2012-09-05T13:51:53Z</time>
      </trkpt>
      <trkpt lat="44.72738" lon="4.25911">
        <ele>500.02</ele>
        <time>2012-09-05T13:52:05Z</time>
      </trkpt>
      <trkpt lat="44.72658" lon="4.25959">
        <ele>495.7</ele>
        <time>2012-09-05T13:52:16Z</time>
      </trkpt>
      <trkpt lat="44.72563" lon="4.25951">
        <ele>494.74</ele>
        <time>2012-09-05T13:52:29Z</time>
      </trkpt>
      <trkpt lat="44.72492" lon="4.26028">
        <ele>491.85</ele>
        <time>2012-09-05T13:52:42Z</time>
      </trkpt>
      <trkpt lat="44.72468" lon="4.26155">
        <ele>492.33</ele>
        <time>2012-09-05T13:52:55Z</time>
      </trkpt>
      <trkpt lat="44.72383" lon="4.26198">
        <ele>491.85</ele>
        <time>2012-09-05T13:53:09Z</time>
      </trkpt>
      <trkpt lat="44.72294" lon="4.26199">
        <ele>490.89</ele>
        <time>2012-09-05T13:53:24Z</time>
      </trkpt>
      <trkpt lat="44.72231" lon="4.26269">
        <ele>488.97</ele>
        <time>2012-09-05T13:54:42Z</time>
      </trkpt>
      <trkpt lat="44.72148" lon="4.26312">
        <ele>495.22</ele>
        <time>2012-09-05T13:55:28Z</time>
      </trkpt>
      <trkpt lat="44.72102" lon="4.26412">
        <ele>500.98</ele>
        <time>2012-09-05T13:56:11Z</time>
      </trkpt>
      <trkpt lat="44.72013" lon="4.26522">
        <ele>511.08</ele>
        <time>2012-09-05T13:57:07Z</time>
      </trkpt>
      <trkpt lat="44.719" lon="4.26541">
        <ele>520.21</ele>
        <time>2012-09-05T13:58:00Z</time>
      </trkpt>
      <trkpt lat="44.71792" lon="4.26555">
        <ele>528.86</ele>
        <time>2012-09-05T13:58:49Z</time>
      </trkpt>
      <trkpt lat="44.71688" lon="4.26565">
        <ele>535.59</ele>
        <time>2012-09-05T13:59:32Z</time>
      </trkpt>
      <trkpt lat="44.71595" lon="4.26571">
        <ele>543.28</ele>
        <time>2012-09-05T14:00:16Z</time>
      </trkpt>
      <trkpt lat="44.71519" lon="4.2649">
        <ele>550.49</ele>
        <time>2012-09-05T14:00:56Z</time>
      </trkpt>
      <trkpt lat="44.71448" lon="4.26542">
        <ele>557.22</ele>
        <time>2012-09-05T14:01:38Z</time>
      </trkpt>
      <trkpt lat="44.71366" lon="4.26571">
        <ele>563.95</ele>
        <time>2012-09-05T14:02:16Z</time>
      </trkpt>
      <trkpt lat="44.71372" lon="4.2645">
        <ele>571.16</ele>
        <time>2012-09-05T14:02:55Z</time>
      </trkpt>
      <trkpt lat="44.71429" lon="4.26355">
        <ele>576.93</ele>
        <time>2012-09-05T14:03:36Z</time>
      </trkpt>
      <trkpt lat="44.71441" lon="4.26326">
        <ele>578.37</ele>
        <time>2012-09-05T14:05:35Z</time>
      </trkpt>
      <trkpt lat="44.71451" lon="4.26324">
        <ele>578.85</ele>
        <time>2012-09-05T14:06:54Z</time>
      </trkpt>
      <trkpt lat="44.71423" lon="4.262">
        <ele>583.18</ele>
        <time>2012-09-05T14:07:44Z</time>
      </trkpt>
      <trkpt lat="44.71386" lon="4.26082">
        <ele>589.91</ele>
        <time>2012-09-05T14:08:21Z</time>
      </trkpt>
      <trkpt lat="44.71341" lon="4.25978">
        <ele>595.67</ele>
        <time>2012-09-05T14:08:58Z</time>
      </trkpt>
      <trkpt lat="44.71266" lon="4.26016">
        <ele>602.4</ele>
        <time>2012-09-05T14:09:38Z</time>
      </trkpt>
      <trkpt lat="44.71204" lon="4.25922">
        <ele>606.25</ele>
        <time>2012-09-05T14:10:12Z</time>
      </trkpt>
      <trkpt lat="44.7113" lon="4.25815">
        <ele>613.46</ele>
        <time>2012-09-05T14:10:50Z</time>
      </trkpt>
      <trkpt lat="44.71077" lon="4.25677">
        <ele>620.67</ele>
        <time>2012-09-05T14:11:28Z</time>
      </trkpt>
      <trkpt lat="44.71052" lon="4.25549">
        <ele>619.71</ele>
        <time>2012-09-05T14:11:51Z</time>
      </trkpt>
      <trkpt lat="44.71025" lon="4.2544">
        <ele>620.67</ele>
        <time>2012-09-05T14:12:13Z</time>
      </trkpt>
      <trkpt lat="44.70957" lon="4.25529">
        <ele>627.4</ele>
        <time>2012-09-05T14:12:44Z</time>
      </trkpt>
      <trkpt lat="44.70922" lon="4.25434">
        <ele>630.28</ele>
        <time>2012-09-05T14:13:12Z</time>
      </trkpt>
      <trkpt lat="44.70852" lon="4.25353">
        <ele>637.01</ele>
        <time>2012-09-05T14:13:47Z</time>
      </trkpt>
      <trkpt lat="44.70786" lon="4.25316">
        <ele>641.82</ele>
        <time>2012-09-05T14:14:22Z</time>
      </trkpt>
      <trkpt lat="44.70698" lon="4.25271">
        <ele>647.1</ele>
        <time>2012-09-05T14:14:55Z</time>
      </trkpt>
      <trkpt lat="44.70601" lon="4.25215">
        <ele>643.74</ele>
        <time>2012-09-05T14:15:26Z</time>
      </trkpt>
      <trkpt lat="44.70507" lon="4.25175">
        <ele>638.93</ele>
        <time>2012-09-05T14:15:40Z</time>
      </trkpt>
      <trkpt lat="44.70434" lon="4.25107">
        <ele>635.09</ele>
        <time>2012-09-05T14:15:55Z</time>
      </trkpt>
      <trkpt lat="44.7041" lon="4.2498">
        <ele>630.76</ele>
        <time>2012-09-05T14:16:10Z</time>
      </trkpt>
      <trkpt lat="44.70445" lon="4.24863">
        <ele>622.59</ele>
        <time>2012-09-05T14:16:24Z</time>
      </trkpt>
      <trkpt lat="44.70519" lon="4.24791">
        <ele>615.86</ele>
        <time>2012-09-05T14:16:37Z</time>
      </trkpt>
      <trkpt lat="44.70557" lon="4.2468">
        <ele>611.54</ele>
        <time>2012-09-05T14:16:50Z</time>
      </trkpt>
      <trkpt lat="44.70503" lon="4.24605">
        <ele>606.25</ele>
        <time>2012-09-05T14:17:05Z</time>
      </trkpt>
      <trkpt lat="44.70457" lon="4.245">
        <ele>600.48</ele>
        <time>2012-09-05T14:17:27Z</time>
      </trkpt>
      <trkpt lat="44.70421" lon="4.24385">
        <ele>599.52</ele>
        <time>2012-09-05T14:17:46Z</time>
      </trkpt>
      <trkpt lat="44.70478" lon="4.24316">
        <ele>594.23</ele>
        <time>2012-09-05T14:18:02Z</time>
      </trkpt>
      <trkpt lat="44.70558" lon="4.24293">
        <ele>589.91</ele>
        <time>2012-09-05T14:18:17Z</time>
      </trkpt>
      <trkpt lat="44.70524" lon="4.24176">
        <ele>587.98</ele>
        <time>2012-09-05T14:18:34Z</time>
      </trkpt>
      <trkpt lat="44.70472" lon="4.24075">
        <ele>587.5</ele>
        <time>2012-09-05T14:18:50Z</time>
      </trkpt>
      <trkpt lat="44.70481" lon="4.2394">
        <ele>585.58</ele>
        <time>2012-09-05T14:19:08Z</time>
      </trkpt>
      <trkpt lat="44.70505" lon="4.23809">
        <ele>583.18</ele>
        <time>2012-09-05T14:19:23Z</time>
      </trkpt>
      <trkpt lat="44.70572" lon="4.23719">
        <ele>581.73</ele>
        <time>2012-09-05T14:19:40Z</time>
      </trkpt>
      <trkpt lat="44.70578" lon="4.23596">
        <ele>583.66</ele>
        <time>2012-09-05T14:20:00Z</time>
      </trkpt>
      <trkpt lat="44.70522" lon="4.23491">
        <ele>584.62</ele>
        <time>2012-09-05T14:20:19Z</time>
      </trkpt>
      <trkpt lat="44.7054" lon="4.23366">
        <ele>583.18</ele>
        <time>2012-09-05T14:20:35Z</time>
      </trkpt>
      <trkpt lat="44.70596" lon="4.23266">
        <ele>579.81</ele>
        <time>2012-09-05T14:20:52Z</time>
      </trkpt>
      <trkpt lat="44.70677" lon="4.23233">
        <ele>580.29</ele>
        <time>2012-09-05T14:21:10Z</time>
      </trkpt>
      <trkpt lat="44.70697" lon="4.23123">
        <ele>582.7</ele>
        <time>2012-09-05T14:21:30Z</time>
      </trkpt>
      <trkpt lat="44.70679" lon="4.23003">
        <ele>579.33</ele>
        <time>2012-09-05T14:21:48Z</time>
      </trkpt>
      <trkpt lat="44.70629" lon="4.22909">
        <ele>574.53</ele>
        <time>2012-09-05T14:22:03Z</time>
      </trkpt>
      <trkpt lat="44.70629" lon="4.22782">
        <ele>568.76</ele>
        <time>2012-09-05T14:22:17Z</time>
      </trkpt>
      <trkpt lat="44.70664" lon="4.22651">
        <ele>563.47</ele>
        <time>2012-09-05T14:22:30Z</time>
      </trkpt>
      <trkpt lat="44.70706" lon="4.22528">
        <ele>554.82</ele>
        <time>2012-09-05T14:22:42Z</time>
      </trkpt>
      <trkpt lat="44.70749" lon="4.22419">
        <ele>551.93</ele>
        <time>2012-09-05T14:22:56Z</time>
      </trkpt>
      <trkpt lat="44.70724" lon="4.22304">
        <ele>549.05</ele>
        <time>2012-09-05T14:23:15Z</time>
      </trkpt>
      <trkpt lat="44.70719" lon="4.22213">
        <ele>544.72</ele>
        <time>2012-09-05T14:23:30Z</time>
      </trkpt>
      <trkpt lat="44.70748" lon="4.22083">
        <ele>538.96</ele>
        <time>2012-09-05T14:23:43Z</time>
      </trkpt>
      <trkpt lat="44.70797" lon="4.21978">
        <ele>535.11</ele>
        <time>2012-09-05T14:23:55Z</time>
      </trkpt>
      <trkpt lat="44.70851" lon="4.21909">
        <ele>532.23</ele>
        <time>2012-09-05T14:24:11Z</time>
      </trkpt>
      <trkpt lat="44.70761" lon="4.21882">
        <ele>526.46</ele>
        <time>2012-09-05T14:24:24Z</time>
      </trkpt>
      <trkpt lat="44.707" lon="4.21792">
        <ele>523.09</ele>
        <time>2012-09-05T14:24:36Z</time>
      </trkpt>
      <trkpt lat="44.70755" lon="4.2169">
        <ele>521.65</ele>
        <time>2012-09-05T14:24:52Z</time>
      </trkpt>
      <trkpt lat="44.70795" lon="4.21577">
        <ele>525.98</ele>
        <time>2012-09-05T14:25:17Z</time>
      </trkpt>
      <trkpt lat="44.70753" lon="4.21487">
        <ele>526.94</ele>
        <time>2012-09-05T14:25:45Z</time>
      </trkpt>
      <trkpt lat="44.70787" lon="4.21376">
        <ele>530.3</ele>
        <time>2012-09-05T14:26:12Z</time>
      </trkpt>
      <trkpt lat="44.70846" lon="4.21276">
        <ele>534.15</ele>
        <time>2012-09-05T14:26:39Z</time>
      </trkpt>
      <trkpt lat="44.70923" lon="4.21203">
        <ele>538.96</ele>
        <time>2012-09-05T14:27:11Z</time>
      </trkpt>
      <trkpt lat="44.7099" lon="4.21108">
        <ele>546.17</ele>
        <time>2012-09-05T14:27:52Z</time>
      </trkpt>
      <trkpt lat="44.71059" lon="4.21016">
        <ele>551.45</ele>
        <time>2012-09-05T14:28:32Z</time>
      </trkpt>
      <trkpt lat="44.71124" lon="4.20917">
        <ele>559.14</ele>
        <time>2012-09-05T14:29:12Z</time>
      </trkpt>
      <trkpt lat="44.71164" lon="4.20817">
        <ele>564.91</ele>
        <time>2012-09-05T14:29:49Z</time>
      </trkpt>
    </trkseg>
  </trk>
</gpx>